sensor_id;sensor_type;location;lat;lon;timestamp;P1;durP1;ratioP1;P2;durP2;ratioP2
74495;SDS011;62979;55.720;37.606;2023-03-31T00:01:36;2.63;;;2.20;;
74495;SDS011;62979;55.720;37.606;2023-03-31T00:04:06;3.70;;;2.72;;
74495;SDS011;62979;55.720;37.606;2023-03-31T00:06:37;2.88;;;2.55;;
74495;SDS011;62979;55.720;37.606;2023-03-31T00:09:08;4.10;;;2.80;;
74495;SDS011;62979;55.720;37.606;2023-03-31T00:11:38;3.75;;;2.85;;
74495;SDS011;62979;55.720;37.606;2023-03-31T00:14:07;3.72;;;2.92;;
74495;SDS011;62979;55.720;37.606;2023-03-31T00:16:34;2.90;;;2.13;;
74495;SDS011;62979;55.720;37.606;2023-03-31T00:19:04;2.70;;;1.75;;
74495;SDS011;62979;55.720;37.606;2023-03-31T00:21:34;3.70;;;3.13;;
74495;SDS011;62979;55.720;37.606;2023-03-31T00:24:02;2.88;;;2.22;;
74495;SDS011;62979;55.720;37.606;2023-03-31T00:26:31;3.40;;;2.65;;
74495;SDS011;62979;55.720;37.606;2023-03-31T00:29:00;3.03;;;2.63;;
74495;SDS011;62979;55.720;37.606;2023-03-31T00:31:30;3.70;;;2.35;;
74495;SDS011;62979;55.720;37.606;2023-03-31T00:33:58;3.42;;;2.50;;
74495;SDS011;62979;55.720;37.606;2023-03-31T00:36:25;5.50;;;2.72;;
74495;SDS011;62979;55.720;37.606;2023-03-31T00:38:56;2.20;;;1.98;;
74495;SDS011;62979;55.720;37.606;2023-03-31T00:41:26;5.00;;;2.13;;
74495;SDS011;62979;55.720;37.606;2023-03-31T00:44:00;1.85;;;1.35;;
74495;SDS011;62979;55.720;37.606;2023-03-31T00:46:39;3.55;;;2.22;;
74495;SDS011;62979;55.720;37.606;2023-03-31T00:49:14;4.13;;;2.55;;
74495;SDS011;62979;55.720;37.606;2023-03-31T00:51:53;3.92;;;2.53;;
74495;SDS011;62979;55.720;37.606;2023-03-31T00:54:27;3.25;;;2.53;;
74495;SDS011;62979;55.720;37.606;2023-03-31T00:56:57;2.83;;;2.33;;
74495;SDS011;62979;55.720;37.606;2023-03-31T00:59:27;4.15;;;3.15;;
74495;SDS011;62979;55.720;37.606;2023-03-31T01:02:01;4.63;;;2.33;;
74495;SDS011;62979;55.720;37.606;2023-03-31T01:04:29;3.53;;;2.45;;
74495;SDS011;62979;55.720;37.606;2023-03-31T01:07:05;3.70;;;2.42;;
74495;SDS011;62979;55.720;37.606;2023-03-31T01:09:40;5.85;;;3.10;;
74495;SDS011;62979;55.720;37.606;2023-03-31T01:12:11;4.18;;;2.92;;
74495;SDS011;62979;55.720;37.606;2023-03-31T01:14:43;3.20;;;2.20;;
74495;SDS011;62979;55.720;37.606;2023-03-31T01:17:11;3.80;;;2.63;;
74495;SDS011;62979;55.720;37.606;2023-03-31T01:19:50;2.92;;;2.17;;
74495;SDS011;62979;55.720;37.606;2023-03-31T01:28:54;4.90;;;1.95;;
74495;SDS011;62979;55.720;37.606;2023-03-31T01:31:42;4.22;;;2.63;;
74495;SDS011;62979;55.720;37.606;2023-03-31T01:34:41;3.03;;;1.80;;
74495;SDS011;62979;55.720;37.606;2023-03-31T01:41:10;1.83;;;1.65;;
74495;SDS011;62979;55.720;37.606;2023-03-31T01:44:05;2.05;;;1.63;;
74495;SDS011;62979;55.720;37.606;2023-03-31T01:46:45;3.10;;;2.25;;
74495;SDS011;62979;55.720;37.606;2023-03-31T01:49:23;2.65;;;1.92;;
74495;SDS011;62979;55.720;37.606;2023-03-31T01:52:05;2.78;;;2.13;;
74495;SDS011;62979;55.720;37.606;2023-03-31T01:54:45;2.15;;;1.88;;
74495;SDS011;62979;55.720;37.606;2023-03-31T01:57:18;3.15;;;2.53;;
74495;SDS011;62979;55.720;37.606;2023-03-31T01:59:51;2.88;;;2.58;;
74495;SDS011;62979;55.720;37.606;2023-03-31T02:02:28;2.63;;;2.05;;
74495;SDS011;62979;55.720;37.606;2023-03-31T02:05:01;3.08;;;1.40;;
74495;SDS011;62979;55.720;37.606;2023-03-31T02:07:36;2.60;;;1.95;;
74495;SDS011;62979;55.720;37.606;2023-03-31T02:10:09;2.30;;;1.65;;
74495;SDS011;62979;55.720;37.606;2023-03-31T02:12:42;4.30;;;1.65;;
74495;SDS011;62979;55.720;37.606;2023-03-31T02:15:11;3.28;;;2.33;;
74495;SDS011;62979;55.720;37.606;2023-03-31T02:17:46;3.38;;;2.28;;
74495;SDS011;62979;55.720;37.606;2023-03-31T02:20:19;2.10;;;1.92;;
74495;SDS011;62979;55.720;37.606;2023-03-31T02:22:49;6.05;;;2.88;;
74495;SDS011;62979;55.720;37.606;2023-03-31T02:25:21;2.50;;;1.63;;
74495;SDS011;62979;55.720;37.606;2023-03-31T02:27:55;2.65;;;1.17;;
74495;SDS011;62979;55.720;37.606;2023-03-31T02:30:28;3.97;;;2.83;;
74495;SDS011;62979;55.720;37.606;2023-03-31T02:33:08;1.55;;;0.88;;
74495;SDS011;62979;55.720;37.606;2023-03-31T02:35:35;5.25;;;1.10;;
74495;SDS011;62979;55.720;37.606;2023-03-31T02:38:02;1.92;;;1.23;;
74495;SDS011;62979;55.720;37.606;2023-03-31T02:40:31;3.00;;;1.40;;
74495;SDS011;62979;55.720;37.606;2023-03-31T02:42:59;2.22;;;1.25;;
74495;SDS011;62979;55.720;37.606;2023-03-31T02:45:40;1.83;;;1.73;;
74495;SDS011;62979;55.720;37.606;2023-03-31T02:48:12;3.13;;;1.70;;
74495;SDS011;62979;55.720;37.606;2023-03-31T02:50:53;1.73;;;1.42;;
74495;SDS011;62979;55.720;37.606;2023-03-31T02:53:48;2.15;;;1.38;;
74495;SDS011;62979;55.720;37.606;2023-03-31T02:56:48;2.20;;;1.45;;
74495;SDS011;62979;55.720;37.606;2023-03-31T02:59:47;1.70;;;1.48;;
74495;SDS011;62979;55.720;37.606;2023-03-31T03:02:29;2.97;;;1.55;;
74495;SDS011;62979;55.720;37.606;2023-03-31T03:05:14;3.22;;;1.27;;
74495;SDS011;62979;55.720;37.606;2023-03-31T03:07:55;1.98;;;1.70;;
74495;SDS011;62979;55.720;37.606;2023-03-31T03:10:34;2.08;;;1.58;;
74495;SDS011;62979;55.720;37.606;2023-03-31T03:13:15;2.42;;;1.75;;
74495;SDS011;62979;55.720;37.606;2023-03-31T03:15:50;2.13;;;1.55;;
74495;SDS011;62979;55.720;37.606;2023-03-31T03:18:27;2.35;;;1.75;;
74495;SDS011;62979;55.720;37.606;2023-03-31T03:20:54;4.38;;;2.03;;
74495;SDS011;62979;55.720;37.606;2023-03-31T03:23:21;3.58;;;1.98;;
74495;SDS011;62979;55.720;37.606;2023-03-31T03:25:48;2.53;;;1.58;;
74495;SDS011;62979;55.720;37.606;2023-03-31T03:28:15;2.40;;;1.73;;
74495;SDS011;62979;55.720;37.606;2023-03-31T03:30:42;2.85;;;1.55;;
74495;SDS011;62979;55.720;37.606;2023-03-31T03:33:11;3.05;;;2.33;;
74495;SDS011;62979;55.720;37.606;2023-03-31T03:35:41;2.47;;;2.20;;
74495;SDS011;62979;55.720;37.606;2023-03-31T03:38:08;3.80;;;1.80;;
74495;SDS011;62979;55.720;37.606;2023-03-31T03:40:35;4.38;;;2.22;;
74495;SDS011;62979;55.720;37.606;2023-03-31T03:43:02;4.05;;;2.25;;
74495;SDS011;62979;55.720;37.606;2023-03-31T03:45:29;5.07;;;2.75;;
74495;SDS011;62979;55.720;37.606;2023-03-31T03:47:56;3.45;;;2.38;;
74495;SDS011;62979;55.720;37.606;2023-03-31T03:50:24;3.28;;;2.30;;
74495;SDS011;62979;55.720;37.606;2023-03-31T03:52:51;5.22;;;2.45;;
74495;SDS011;62979;55.720;37.606;2023-03-31T03:55:18;3.13;;;2.38;;
74495;SDS011;62979;55.720;37.606;2023-03-31T03:57:44;3.28;;;2.90;;
74495;SDS011;62979;55.720;37.606;2023-03-31T04:00:11;5.13;;;2.53;;
74495;SDS011;62979;55.720;37.606;2023-03-31T04:02:39;11.20;;;3.13;;
74495;SDS011;62979;55.720;37.606;2023-03-31T04:05:06;4.20;;;2.03;;
74495;SDS011;62979;55.720;37.606;2023-03-31T04:07:35;3.28;;;2.40;;
74495;SDS011;62979;55.720;37.606;2023-03-31T04:10:02;3.63;;;1.90;;
74495;SDS011;62979;55.720;37.606;2023-03-31T04:12:29;4.10;;;2.45;;
74495;SDS011;62979;55.720;37.606;2023-03-31T04:14:56;3.88;;;2.40;;
74495;SDS011;62979;55.720;37.606;2023-03-31T04:17:23;5.95;;;2.25;;
74495;SDS011;62979;55.720;37.606;2023-03-31T04:19:56;3.72;;;2.28;;
74495;SDS011;62979;55.720;37.606;2023-03-31T04:22:25;2.80;;;2.20;;
74495;SDS011;62979;55.720;37.606;2023-03-31T04:25:00;3.30;;;2.83;;
74495;SDS011;62979;55.720;37.606;2023-03-31T04:27:28;3.65;;;1.65;;
74495;SDS011;62979;55.720;37.606;2023-03-31T04:29:57;3.45;;;2.58;;
74495;SDS011;62979;55.720;37.606;2023-03-31T04:32:24;5.50;;;2.47;;
74495;SDS011;62979;55.720;37.606;2023-03-31T04:34:52;4.05;;;2.65;;
74495;SDS011;62979;55.720;37.606;2023-03-31T04:37:27;4.03;;;2.55;;
74495;SDS011;62979;55.720;37.606;2023-03-31T04:39:58;5.35;;;2.13;;
74495;SDS011;62979;55.720;37.606;2023-03-31T04:42:33;2.83;;;2.00;;
74495;SDS011;62979;55.720;37.606;2023-03-31T04:45:00;4.03;;;1.92;;
74495;SDS011;62979;55.720;37.606;2023-03-31T04:47:27;3.17;;;2.00;;
74495;SDS011;62979;55.720;37.606;2023-03-31T04:49:54;5.68;;;3.55;;
74495;SDS011;62979;55.720;37.606;2023-03-31T04:52:21;3.75;;;2.72;;
74495;SDS011;62979;55.720;37.606;2023-03-31T04:54:48;4.65;;;2.05;;
74495;SDS011;62979;55.720;37.606;2023-03-31T04:57:16;3.05;;;2.40;;
74495;SDS011;62979;55.720;37.606;2023-03-31T05:02:10;1.90;;;1.70;;
74495;SDS011;62979;55.720;37.606;2023-03-31T05:04:37;4.25;;;2.83;;
74495;SDS011;62979;55.720;37.606;2023-03-31T05:07:03;5.80;;;2.33;;
74495;SDS011;62979;55.720;37.606;2023-03-31T05:09:30;6.00;;;2.80;;
74495;SDS011;62979;55.720;37.606;2023-03-31T05:11:57;4.72;;;2.58;;
74495;SDS011;62979;55.720;37.606;2023-03-31T05:14:26;3.40;;;2.30;;
74495;SDS011;62979;55.720;37.606;2023-03-31T05:16:54;5.68;;;3.20;;
74495;SDS011;62979;55.720;37.606;2023-03-31T05:19:21;4.40;;;2.42;;
74495;SDS011;62979;55.720;37.606;2023-03-31T05:21:48;5.97;;;3.00;;
74495;SDS011;62979;55.720;37.606;2023-03-31T05:24:15;2.65;;;2.45;;
74495;SDS011;62979;55.720;37.606;2023-03-31T05:26:43;3.72;;;3.08;;
74495;SDS011;62979;55.720;37.606;2023-03-31T05:29:13;2.83;;;2.35;;
74495;SDS011;62979;55.720;37.606;2023-03-31T05:31:43;1.55;;;1.45;;
74495;SDS011;62979;55.720;37.606;2023-03-31T05:34:10;3.75;;;3.05;;
74495;SDS011;62979;55.720;37.606;2023-03-31T05:36:37;4.18;;;3.15;;
74495;SDS011;62979;55.720;37.606;2023-03-31T05:39:04;3.72;;;2.55;;
74495;SDS011;62979;55.720;37.606;2023-03-31T05:41:32;4.90;;;2.67;;
74495;SDS011;62979;55.720;37.606;2023-03-31T05:43:59;3.97;;;3.05;;
74495;SDS011;62979;55.720;37.606;2023-03-31T05:46:27;4.13;;;2.55;;
74495;SDS011;62979;55.720;37.606;2023-03-31T05:48:55;4.78;;;2.47;;
74495;SDS011;62979;55.720;37.606;2023-03-31T05:51:22;8.52;;;3.17;;
74495;SDS011;62979;55.720;37.606;2023-03-31T05:53:49;3.60;;;2.63;;
74495;SDS011;62979;55.720;37.606;2023-03-31T05:56:16;5.50;;;3.35;;
74495;SDS011;62979;55.720;37.606;2023-03-31T05:58:43;4.70;;;1.85;;
74495;SDS011;62979;55.720;37.606;2023-03-31T06:01:11;3.63;;;2.30;;
74495;SDS011;62979;55.720;37.606;2023-03-31T06:03:47;5.88;;;2.88;;
74495;SDS011;62979;55.720;37.606;2023-03-31T06:06:16;10.65;;;3.55;;
74495;SDS011;62979;55.720;37.606;2023-03-31T06:08:44;6.75;;;2.72;;
74495;SDS011;62979;55.720;37.606;2023-03-31T06:11:13;4.90;;;3.35;;
74495;SDS011;62979;55.720;37.606;2023-03-31T06:13:43;4.65;;;3.00;;
74495;SDS011;62979;55.720;37.606;2023-03-31T06:16:12;12.05;;;3.13;;
74495;SDS011;62979;55.720;37.606;2023-03-31T06:18:41;4.13;;;2.70;;
74495;SDS011;62979;55.720;37.606;2023-03-31T06:21:09;6.80;;;2.90;;
74495;SDS011;62979;55.720;37.606;2023-03-31T06:23:41;5.50;;;2.75;;
74495;SDS011;62979;55.720;37.606;2023-03-31T06:26:10;7.05;;;4.22;;
74495;SDS011;62979;55.720;37.606;2023-03-31T06:28:40;4.75;;;3.33;;
74495;SDS011;62979;55.720;37.606;2023-03-31T06:31:07;9.18;;;3.97;;
74495;SDS011;62979;55.720;37.606;2023-03-31T06:33:37;5.10;;;3.97;;
74495;SDS011;62979;55.720;37.606;2023-03-31T06:36:06;6.07;;;3.33;;
74495;SDS011;62979;55.720;37.606;2023-03-31T06:38:34;6.80;;;4.30;;
74495;SDS011;62979;55.720;37.606;2023-03-31T06:41:04;7.50;;;4.43;;
74495;SDS011;62979;55.720;37.606;2023-03-31T06:43:33;6.78;;;4.45;;
74495;SDS011;62979;55.720;37.606;2023-03-31T06:46:00;6.25;;;3.83;;
74495;SDS011;62979;55.720;37.606;2023-03-31T06:48:27;8.55;;;4.50;;
74495;SDS011;62979;55.720;37.606;2023-03-31T06:53:25;5.22;;;3.67;;
74495;SDS011;62979;55.720;37.606;2023-03-31T06:55:53;7.10;;;3.20;;
74495;SDS011;62979;55.720;37.606;2023-03-31T06:58:21;7.25;;;4.40;;
74495;SDS011;62979;55.720;37.606;2023-03-31T07:00:48;7.53;;;4.50;;
74495;SDS011;62979;55.720;37.606;2023-03-31T07:03:16;11.85;;;4.63;;
74495;SDS011;62979;55.720;37.606;2023-03-31T07:05:47;9.55;;;4.20;;
74495;SDS011;62979;55.720;37.606;2023-03-31T07:08:15;6.22;;;4.50;;
74495;SDS011;62979;55.720;37.606;2023-03-31T07:10:43;7.88;;;4.97;;
74495;SDS011;62979;55.720;37.606;2023-03-31T07:13:12;4.95;;;3.35;;
74495;SDS011;62979;55.720;37.606;2023-03-31T07:15:42;5.80;;;3.95;;
74495;SDS011;62979;55.720;37.606;2023-03-31T07:18:13;6.28;;;4.10;;
74495;SDS011;62979;55.720;37.606;2023-03-31T07:20:40;8.70;;;4.40;;
74495;SDS011;62979;55.720;37.606;2023-03-31T07:23:08;11.05;;;3.97;;
74495;SDS011;62979;55.720;37.606;2023-03-31T07:25:35;7.93;;;4.15;;
74495;SDS011;62979;55.720;37.606;2023-03-31T07:28:02;6.65;;;3.28;;
74495;SDS011;62979;55.720;37.606;2023-03-31T07:32:59;7.38;;;4.40;;
74495;SDS011;62979;55.720;37.606;2023-03-31T07:35:27;8.52;;;4.97;;
74495;SDS011;62979;55.720;37.606;2023-03-31T07:37:54;19.50;;;5.20;;
74495;SDS011;62979;55.720;37.606;2023-03-31T07:40:22;6.32;;;4.00;;
74495;SDS011;62979;55.720;37.606;2023-03-31T07:42:52;7.07;;;4.28;;
74495;SDS011;62979;55.720;37.606;2023-03-31T07:45:19;5.93;;;3.85;;
74495;SDS011;62979;55.720;37.606;2023-03-31T07:47:50;7.65;;;4.45;;
74495;SDS011;62979;55.720;37.606;2023-03-31T07:50:19;12.48;;;5.15;;
74495;SDS011;62979;55.720;37.606;2023-03-31T07:52:47;7.75;;;4.85;;
74495;SDS011;62979;55.720;37.606;2023-03-31T07:55:16;8.98;;;4.72;;
74495;SDS011;62979;55.720;37.606;2023-03-31T07:57:44;7.28;;;4.20;;
74495;SDS011;62979;55.720;37.606;2023-03-31T08:00:12;5.03;;;4.28;;
74495;SDS011;62979;55.720;37.606;2023-03-31T08:02:41;9.45;;;4.32;;
74495;SDS011;62979;55.720;37.606;2023-03-31T08:05:09;8.68;;;4.47;;
74495;SDS011;62979;55.720;37.606;2023-03-31T08:07:41;3.92;;;2.25;;
74495;SDS011;62979;55.720;37.606;2023-03-31T08:10:12;10.13;;;4.35;;
74495;SDS011;62979;55.720;37.606;2023-03-31T08:12:42;6.28;;;4.28;;
74495;SDS011;62979;55.720;37.606;2023-03-31T08:15:09;5.38;;;3.97;;
74495;SDS011;62979;55.720;37.606;2023-03-31T08:17:37;10.10;;;4.22;;
74495;SDS011;62979;55.720;37.606;2023-03-31T08:20:06;7.60;;;4.93;;
74495;SDS011;62979;55.720;37.606;2023-03-31T08:22:34;5.47;;;4.20;;
74495;SDS011;62979;55.720;37.606;2023-03-31T08:25:03;10.20;;;4.45;;
74495;SDS011;62979;55.720;37.606;2023-03-31T08:27:32;6.50;;;3.95;;
74495;SDS011;62979;55.720;37.606;2023-03-31T08:29:59;9.32;;;4.25;;
74495;SDS011;62979;55.720;37.606;2023-03-31T08:32:28;7.20;;;4.32;;
74495;SDS011;62979;55.720;37.606;2023-03-31T08:34:57;6.43;;;3.67;;
74495;SDS011;62979;55.720;37.606;2023-03-31T08:37:25;7.20;;;3.60;;
74495;SDS011;62979;55.720;37.606;2023-03-31T08:39:53;7.72;;;3.85;;
74495;SDS011;62979;55.720;37.606;2023-03-31T08:42:23;8.70;;;2.97;;
74495;SDS011;62979;55.720;37.606;2023-03-31T08:45:02;4.90;;;3.80;;
74495;SDS011;62979;55.720;37.606;2023-03-31T08:47:46;8.35;;;3.85;;
74495;SDS011;62979;55.720;37.606;2023-03-31T08:50:19;11.65;;;3.08;;
74495;SDS011;62979;55.720;37.606;2023-03-31T08:52:54;5.93;;;3.53;;
74495;SDS011;62979;55.720;37.606;2023-03-31T08:55:31;7.00;;;3.75;;
74495;SDS011;62979;55.720;37.606;2023-03-31T08:58:24;8.77;;;4.15;;
74495;SDS011;62979;55.720;37.606;2023-03-31T09:01:05;10.23;;;4.47;;
74495;SDS011;62979;55.720;37.606;2023-03-31T09:03:49;4.80;;;2.25;;
74495;SDS011;62979;55.720;37.606;2023-03-31T09:06:35;6.95;;;3.30;;
74495;SDS011;62979;55.720;37.606;2023-03-31T09:09:09;7.88;;;3.75;;
74495;SDS011;62979;55.720;37.606;2023-03-31T09:11:46;9.57;;;3.75;;
74495;SDS011;62979;55.720;37.606;2023-03-31T09:14:30;5.85;;;3.80;;
74495;SDS011;62979;55.720;37.606;2023-03-31T09:17:07;3.97;;;2.95;;
74495;SDS011;62979;55.720;37.606;2023-03-31T09:19:46;5.60;;;3.28;;
74495;SDS011;62979;55.720;37.606;2023-03-31T09:22:20;7.90;;;3.30;;
74495;SDS011;62979;55.720;37.606;2023-03-31T09:24:53;4.18;;;2.65;;
74495;SDS011;62979;55.720;37.606;2023-03-31T09:27:26;8.00;;;3.75;;
74495;SDS011;62979;55.720;37.606;2023-03-31T09:30:02;11.80;;;3.42;;
74495;SDS011;62979;55.720;37.606;2023-03-31T09:32:40;5.43;;;3.47;;
74495;SDS011;62979;55.720;37.606;2023-03-31T09:35:13;7.00;;;4.03;;
74495;SDS011;62979;55.720;37.606;2023-03-31T09:37:45;7.57;;;3.55;;
74495;SDS011;62979;55.720;37.606;2023-03-31T09:40:15;13.40;;;3.67;;
74495;SDS011;62979;55.720;37.606;2023-03-31T09:42:45;4.30;;;3.20;;
74495;SDS011;62979;55.720;37.606;2023-03-31T09:45:20;6.18;;;2.40;;
74495;SDS011;62979;55.720;37.606;2023-03-31T09:47:49;9.68;;;3.20;;
74495;SDS011;62979;55.720;37.606;2023-03-31T09:50:19;4.57;;;2.60;;
74495;SDS011;62979;55.720;37.606;2023-03-31T09:52:49;6.25;;;3.03;;
74495;SDS011;62979;55.720;37.606;2023-03-31T09:55:21;3.42;;;2.08;;
74495;SDS011;62979;55.720;37.606;2023-03-31T09:57:52;8.38;;;2.58;;
74495;SDS011;62979;55.720;37.606;2023-03-31T10:00:19;8.73;;;2.53;;
74495;SDS011;62979;55.720;37.606;2023-03-31T10:02:50;4.30;;;2.80;;
74495;SDS011;62979;55.720;37.606;2023-03-31T10:05:25;7.35;;;3.40;;
74495;SDS011;62979;55.720;37.606;2023-03-31T10:08:11;13.07;;;3.03;;
74495;SDS011;62979;55.720;37.606;2023-03-31T10:10:52;3.05;;;1.50;;
74495;SDS011;62979;55.720;37.606;2023-03-31T10:13:22;3.72;;;2.35;;
74495;SDS011;62979;55.720;37.606;2023-03-31T10:16:00;5.53;;;2.85;;
74495;SDS011;62979;55.720;37.606;2023-03-31T10:18:33;12.55;;;2.78;;
74495;SDS011;62979;55.720;37.606;2023-03-31T10:21:03;5.68;;;2.05;;
74495;SDS011;62979;55.720;37.606;2023-03-31T10:23:33;6.38;;;2.63;;
74495;SDS011;62979;55.720;37.606;2023-03-31T10:26:01;7.93;;;2.83;;
74495;SDS011;62979;55.720;37.606;2023-03-31T10:28:31;7.30;;;2.60;;
74495;SDS011;62979;55.720;37.606;2023-03-31T10:31:02;7.25;;;2.53;;
74495;SDS011;62979;55.720;37.606;2023-03-31T10:33:30;5.45;;;2.03;;
74495;SDS011;62979;55.720;37.606;2023-03-31T10:36:02;4.47;;;2.08;;
74495;SDS011;62979;55.720;37.606;2023-03-31T10:41:17;5.60;;;2.20;;
74495;SDS011;62979;55.720;37.606;2023-03-31T10:43:47;5.65;;;2.13;;
74495;SDS011;62979;55.720;37.606;2023-03-31T10:46:18;4.45;;;1.95;;
74495;SDS011;62979;55.720;37.606;2023-03-31T10:48:45;3.33;;;2.28;;
74495;SDS011;62979;55.720;37.606;2023-03-31T10:51:14;3.15;;;2.03;;
74495;SDS011;62979;55.720;37.606;2023-03-31T10:53:45;4.13;;;2.17;;
74495;SDS011;62979;55.720;37.606;2023-03-31T10:56:32;5.95;;;2.83;;
74495;SDS011;62979;55.720;37.606;2023-03-31T10:59:10;5.63;;;2.40;;
74495;SDS011;62979;55.720;37.606;2023-03-31T11:01:57;7.20;;;3.58;;
74495;SDS011;62979;55.720;37.606;2023-03-31T11:05:04;7.35;;;3.03;;
74495;SDS011;62979;55.720;37.606;2023-03-31T11:07:43;6.80;;;3.22;;
74495;SDS011;62979;55.720;37.606;2023-03-31T11:10:33;7.93;;;3.45;;
74495;SDS011;62979;55.720;37.606;2023-03-31T11:13:18;9.10;;;3.05;;
74495;SDS011;62979;55.720;37.606;2023-03-31T11:15:53;4.90;;;3.28;;
74495;SDS011;62979;55.720;37.606;2023-03-31T11:18:38;4.40;;;2.92;;
74495;SDS011;62979;55.720;37.606;2023-03-31T11:21:26;6.68;;;2.92;;
74495;SDS011;62979;55.720;37.606;2023-03-31T11:24:11;5.93;;;3.22;;
74495;SDS011;62979;55.720;37.606;2023-03-31T11:27:02;9.38;;;2.90;;
74495;SDS011;62979;55.720;37.606;2023-03-31T11:29:50;7.13;;;3.20;;
74495;SDS011;62979;55.720;37.606;2023-03-31T11:32:38;4.57;;;2.90;;
74495;SDS011;62979;55.720;37.606;2023-03-31T11:35:43;8.35;;;3.22;;
74495;SDS011;62979;55.720;37.606;2023-03-31T11:38:37;11.90;;;2.10;;
74495;SDS011;62979;55.720;37.606;2023-03-31T11:41:20;10.65;;;4.38;;
74495;SDS011;62979;55.720;37.606;2023-03-31T11:44:01;6.28;;;3.90;;
74495;SDS011;62979;55.720;37.606;2023-03-31T11:46:34;6.72;;;3.30;;
74495;SDS011;62979;55.720;37.606;2023-03-31T11:49:10;9.38;;;4.43;;
74495;SDS011;62979;55.720;37.606;2023-03-31T11:51:49;8.13;;;4.70;;
74495;SDS011;62979;55.720;37.606;2023-03-31T11:54:23;13.02;;;3.58;;
74495;SDS011;62979;55.720;37.606;2023-03-31T11:56:56;6.20;;;3.78;;
74495;SDS011;62979;55.720;37.606;2023-03-31T11:59:32;6.45;;;3.58;;
74495;SDS011;62979;55.720;37.606;2023-03-31T12:02:03;9.40;;;3.63;;
74495;SDS011;62979;55.720;37.606;2023-03-31T12:04:43;7.05;;;3.17;;
74495;SDS011;62979;55.720;37.606;2023-03-31T12:07:20;8.73;;;4.22;;
74495;SDS011;62979;55.720;37.606;2023-03-31T12:09:57;8.60;;;3.85;;
74495;SDS011;62979;55.720;37.606;2023-03-31T12:12:38;7.43;;;3.28;;
74495;SDS011;62979;55.720;37.606;2023-03-31T12:15:13;7.53;;;4.15;;
74495;SDS011;62979;55.720;37.606;2023-03-31T12:17:48;11.15;;;3.55;;
74495;SDS011;62979;55.720;37.606;2023-03-31T12:20:27;12.18;;;4.40;;
74495;SDS011;62979;55.720;37.606;2023-03-31T12:23:00;6.28;;;3.72;;
74495;SDS011;62979;55.720;37.606;2023-03-31T12:25:40;8.38;;;3.97;;
74495;SDS011;62979;55.720;37.606;2023-03-31T12:28:17;6.88;;;4.47;;
74495;SDS011;62979;55.720;37.606;2023-03-31T12:30:46;6.97;;;4.05;;
74495;SDS011;62979;55.720;37.606;2023-03-31T12:33:16;7.65;;;4.13;;
74495;SDS011;62979;55.720;37.606;2023-03-31T12:35:51;6.07;;;4.18;;
74495;SDS011;62979;55.720;37.606;2023-03-31T12:38:40;9.85;;;5.03;;
74495;SDS011;62979;55.720;37.606;2023-03-31T12:41:23;8.32;;;3.28;;
74495;SDS011;62979;55.720;37.606;2023-03-31T12:47:07;12.63;;;4.50;;
74495;SDS011;62979;55.720;37.606;2023-03-31T12:52:59;13.75;;;4.07;;
74495;SDS011;62979;55.720;37.606;2023-03-31T12:55:40;6.72;;;4.28;;
74495;SDS011;62979;55.720;37.606;2023-03-31T13:01:06;7.10;;;4.45;;
74495;SDS011;62979;55.720;37.606;2023-03-31T13:03:44;9.40;;;4.55;;
74495;SDS011;62979;55.720;37.606;2023-03-31T13:09:40;7.28;;;3.80;;
74495;SDS011;62979;55.720;37.606;2023-03-31T13:12:14;6.25;;;3.78;;
74495;SDS011;62979;55.720;37.606;2023-03-31T13:14:45;8.82;;;4.90;;
74495;SDS011;62979;55.720;37.606;2023-03-31T13:17:27;6.63;;;4.20;;
74495;SDS011;62979;55.720;37.606;2023-03-31T13:23:58;7.93;;;3.70;;
74495;SDS011;62979;55.720;37.606;2023-03-31T13:26:37;11.43;;;3.67;;
74495;SDS011;62979;55.720;37.606;2023-03-31T13:29:22;6.97;;;4.47;;
74495;SDS011;62979;55.720;37.606;2023-03-31T13:32:07;7.68;;;4.93;;
74495;SDS011;62979;55.720;37.606;2023-03-31T13:34:48;8.38;;;4.22;;
74495;SDS011;62979;55.720;37.606;2023-03-31T13:37:31;7.45;;;4.03;;
74495;SDS011;62979;55.720;37.606;2023-03-31T13:40:31;8.05;;;4.47;;
74495;SDS011;62979;55.720;37.606;2023-03-31T13:43:25;6.90;;;4.75;;
74495;SDS011;62979;55.720;37.606;2023-03-31T13:46:36;6.07;;;4.32;;
74495;SDS011;62979;55.720;37.606;2023-03-31T13:52:19;6.97;;;4.45;;
74495;SDS011;62979;55.720;37.606;2023-03-31T13:55:27;8.50;;;5.90;;
74495;SDS011;62979;55.720;37.606;2023-03-31T13:58:29;7.13;;;4.43;;
74495;SDS011;62979;55.720;37.606;2023-03-31T14:01:44;7.10;;;4.57;;
74495;SDS011;62979;55.720;37.606;2023-03-31T14:04:45;7.03;;;4.55;;
74495;SDS011;62979;55.720;37.606;2023-03-31T14:07:39;9.80;;;4.22;;
74495;SDS011;62979;55.720;37.606;2023-03-31T14:10:23;7.85;;;4.40;;
74495;SDS011;62979;55.720;37.606;2023-03-31T14:13:08;6.03;;;4.25;;
74495;SDS011;62979;55.720;37.606;2023-03-31T14:15:38;11.40;;;5.32;;
74495;SDS011;62979;55.720;37.606;2023-03-31T14:18:14;7.10;;;5.20;;
74495;SDS011;62979;55.720;37.606;2023-03-31T14:21:00;8.45;;;5.85;;
74495;SDS011;62979;55.720;37.606;2023-03-31T14:23:46;11.52;;;5.75;;
74495;SDS011;62979;55.720;37.606;2023-03-31T14:26:32;8.48;;;5.32;;
74495;SDS011;62979;55.720;37.606;2023-03-31T14:29:17;9.68;;;5.78;;
74495;SDS011;62979;55.720;37.606;2023-03-31T14:31:58;7.68;;;5.00;;
74495;SDS011;62979;55.720;37.606;2023-03-31T14:34:56;11.73;;;4.90;;
74495;SDS011;62979;55.720;37.606;2023-03-31T14:37:50;10.48;;;5.20;;
74495;SDS011;62979;55.720;37.606;2023-03-31T14:42:45;6.22;;;4.07;;
74495;SDS011;62979;55.720;37.606;2023-03-31T14:45:15;9.43;;;6.20;;
74495;SDS011;62979;55.720;37.606;2023-03-31T14:50:22;12.43;;;5.80;;
74495;SDS011;62979;55.720;37.606;2023-03-31T14:52:56;6.97;;;3.97;;
74495;SDS011;62979;55.720;37.606;2023-03-31T14:55:26;9.55;;;5.50;;
74495;SDS011;62979;55.720;37.606;2023-03-31T14:57:58;10.07;;;6.20;;
74495;SDS011;62979;55.720;37.606;2023-03-31T15:00:29;7.93;;;4.93;;
74495;SDS011;62979;55.720;37.606;2023-03-31T15:02:59;11.77;;;6.68;;
74495;SDS011;62979;55.720;37.606;2023-03-31T15:05:34;7.63;;;4.18;;
74495;SDS011;62979;55.720;37.606;2023-03-31T15:08:04;9.13;;;5.78;;
74495;SDS011;62979;55.720;37.606;2023-03-31T15:10:37;11.88;;;6.43;;
74495;SDS011;62979;55.720;37.606;2023-03-31T15:13:08;7.38;;;5.30;;
74495;SDS011;62979;55.720;37.606;2023-03-31T15:15:40;10.98;;;6.28;;
74495;SDS011;62979;55.720;37.606;2023-03-31T15:18:09;9.90;;;5.72;;
74495;SDS011;62979;55.720;37.606;2023-03-31T15:20:42;9.48;;;5.97;;
74495;SDS011;62979;55.720;37.606;2023-03-31T15:23:20;8.35;;;5.82;;
74495;SDS011;62979;55.720;37.606;2023-03-31T15:25:52;9.88;;;5.32;;
74495;SDS011;62979;55.720;37.606;2023-03-31T15:28:24;9.52;;;5.63;;
74495;SDS011;62979;55.720;37.606;2023-03-31T15:30:56;7.20;;;5.03;;
74495;SDS011;62979;55.720;37.606;2023-03-31T15:33:25;10.20;;;5.45;;
74495;SDS011;62979;55.720;37.606;2023-03-31T15:36:02;10.68;;;4.82;;
74495;SDS011;62979;55.720;37.606;2023-03-31T15:38:30;12.38;;;5.68;;
74495;SDS011;62979;55.720;37.606;2023-03-31T15:40:57;9.80;;;5.43;;
74495;SDS011;62979;55.720;37.606;2023-03-31T15:43:26;9.52;;;5.57;;
74495;SDS011;62979;55.720;37.606;2023-03-31T15:45:55;11.07;;;5.97;;
74495;SDS011;62979;55.720;37.606;2023-03-31T15:48:24;10.30;;;5.38;;
74495;SDS011;62979;55.720;37.606;2023-03-31T15:51:04;10.23;;;6.38;;
74495;SDS011;62979;55.720;37.606;2023-03-31T15:53:43;9.77;;;5.40;;
74495;SDS011;62979;55.720;37.606;2023-03-31T15:56:23;9.80;;;5.10;;
74495;SDS011;62979;55.720;37.606;2023-03-31T15:58:56;8.73;;;5.68;;